createdAt,value
2022-09-07T00:01:00.997Z,24.68
2022-09-07T00:03:29.157Z,25.30
2022-09-07T00:05:57.361Z,25.70
2022-09-07T00:08:27.160Z,25.18
2022-09-07T00:10:57.527Z,25.40
2022-09-07T00:13:27.488Z,25.52
2022-09-07T00:15:56.911Z,25.92
2022-09-07T00:18:25.038Z,25.62
2022-09-07T00:20:59.343Z,26.22
2022-09-07T00:23:29.312Z,25.60
2022-09-07T00:26:01.234Z,26.29
2022-09-07T00:28:29.746Z,26.55
2022-09-07T00:30:59.416Z,26.57
2022-09-07T00:33:27.796Z,26.50
2022-09-07T00:35:55.866Z,26.41
2022-09-07T00:38:23.766Z,26.01
2022-09-07T00:40:51.786Z,25.31
2022-09-07T00:43:31.144Z,25.71
2022-09-07T00:46:00.832Z,25.03
2022-09-07T00:48:34.927Z,25.01
2022-09-07T00:51:09.401Z,25.34
2022-09-07T00:53:41.981Z,25.46
2022-09-07T00:56:12.067Z,25.41
2022-09-07T00:58:44.961Z,25.89
2022-09-07T01:01:16.784Z,25.35
2022-09-07T01:03:48.145Z,25.05
2022-09-07T01:06:18.876Z,24.37
2022-09-07T01:08:49.730Z,24.87
2022-09-07T01:11:19.387Z,25.21
2022-09-07T01:13:49.129Z,25.73
2022-09-07T01:16:33.003Z,26.15
2022-09-07T01:19:17.658Z,24.76
2022-09-07T01:22:00.375Z,25.42
2022-09-07T01:24:43.993Z,25.37
2022-09-07T01:27:52.856Z,25.20
2022-09-07T01:30:23.049Z,25.45
2022-09-07T01:33:11.528Z,25.56
2022-09-07T01:35:46.299Z,25.86
2022-09-07T01:38:22.560Z,26.13
2022-09-07T01:40:54.667Z,25.90
2022-09-07T01:43:30.790Z,26.29
2022-09-07T01:46:02.509Z,25.83
2022-09-07T01:48:34.551Z,26.14
2022-09-07T01:51:04.677Z,26.34
2022-09-07T01:53:36.993Z,26.47
2022-09-07T01:56:10.056Z,26.15
2022-09-07T01:58:44.292Z,26.28
2022-09-07T02:01:15.262Z,25.38
2022-09-07T02:03:48.285Z,25.82
2022-09-07T02:06:21.514Z,25.43
2022-09-07T02:08:56.684Z,25.51
2022-09-07T02:11:30.205Z,25.78
2022-09-07T02:14:01.845Z,25.14
2022-09-07T02:16:31.324Z,25.11
2022-09-07T02:19:05.366Z,24.79
2022-09-07T02:21:38.091Z,24.63
2022-09-07T02:24:10.858Z,23.81
2022-09-07T02:26:42.954Z,23.74
2022-09-07T02:29:12.223Z,23.96
2022-09-07T02:31:40.109Z,23.10
2022-09-07T02:34:08.531Z,23.39
2022-09-07T02:36:41.320Z,23.32
2022-09-07T02:39:09.251Z,23.26
2022-09-07T02:41:39.392Z,22.76
2022-09-07T02:44:12.063Z,22.42
2022-09-07T02:46:59.506Z,23.11
2022-09-07T02:49:40.332Z,24.08
2022-09-07T02:52:19.241Z,22.67
2022-09-07T02:54:59.050Z,23.74
2022-09-07T02:57:37.499Z,24.41
2022-09-07T03:00:11.113Z,24.13
2022-09-07T03:02:47.684Z,24.52
2022-09-07T03:05:20.933Z,24.94
2022-09-07T03:07:55.528Z,25.23
2022-09-07T03:10:24.350Z,25.35
2022-09-07T03:12:52.748Z,25.49
2022-09-07T03:15:23.574Z,25.01
2022-09-07T03:17:53.134Z,25.37
2022-09-07T03:20:22.296Z,25.64
2022-09-07T03:22:52.121Z,25.17
2022-09-07T03:25:21.962Z,25.44
2022-09-07T03:27:49.758Z,23.25
2022-09-07T03:30:17.942Z,24.08
2022-09-07T03:32:45.994Z,24.73
2022-09-07T03:35:15.348Z,24.07
2022-09-07T03:37:43.194Z,24.38
2022-09-07T03:40:13.361Z,25.30
2022-09-07T03:42:41.977Z,24.89
2022-09-07T03:45:11.267Z,24.22
2022-09-07T03:47:41.124Z,25.17
2022-09-07T03:50:09.770Z,25.58
2022-09-07T03:52:39.487Z,25.73
2022-09-07T03:55:07.739Z,26.02
2022-09-07T03:57:36.121Z,25.43
2022-09-07T04:00:05.484Z,25.28
2022-09-07T04:02:40.364Z,25.66
2022-09-07T04:05:11.561Z,24.50
2022-09-07T04:07:40.935Z,24.43
2022-09-07T04:10:09.908Z,24.99
2022-09-07T04:12:37.789Z,23.92
2022-09-07T04:15:06.484Z,23.96
2022-09-07T04:17:34.282Z,23.33
2022-09-07T04:20:02.705Z,23.53
2022-09-07T04:22:30.786Z,23.08
2022-09-07T04:25:00.016Z,22.85
2022-09-07T04:27:27.882Z,23.49
2022-09-07T04:29:55.676Z,23.71
2022-09-07T04:32:23.551Z,23.86
2022-09-07T04:34:51.936Z,24.05
2022-09-07T04:37:19.753Z,24.37
2022-09-07T04:39:47.663Z,23.60
2022-09-07T04:42:16.989Z,23.13
2022-09-07T04:44:45.243Z,22.89
2022-09-07T04:47:13.035Z,22.17
2022-09-07T04:49:41.163Z,23.09
2022-09-07T04:52:09.018Z,22.78
2022-09-07T04:54:36.811Z,23.24
2022-09-07T04:57:04.771Z,23.89
2022-09-07T04:59:34.028Z,24.44
2022-09-07T05:02:04.458Z,24.82
2022-09-07T05:04:32.304Z,25.08
2022-09-07T05:07:00.087Z,25.19
2022-09-07T05:09:28.021Z,25.23
2022-09-07T05:11:55.943Z,24.40
2022-09-07T05:14:23.934Z,24.82
2022-09-07T05:16:54.364Z,25.31
2022-09-07T05:19:22.233Z,25.60
2022-09-07T05:21:50.135Z,24.89
2022-09-07T05:24:17.975Z,23.32
2022-09-07T05:26:45.817Z,22.53
2022-09-07T05:32:03.188Z,21.83
2022-09-07T05:34:31.500Z,23.07
2022-09-07T05:37:02.919Z,23.99
2022-09-07T05:39:31.054Z,24.06
2022-09-07T05:41:59.001Z,24.69
2022-09-07T05:47:11.457Z,25.67
2022-09-07T05:49:39.295Z,25.48
2022-09-07T05:52:08.160Z,24.85
2022-09-07T05:54:36.189Z,25.00
2022-09-07T05:57:07.396Z,24.56
2022-09-07T05:59:35.441Z,24.83
2022-09-07T06:02:03.426Z,25.25
2022-09-07T06:04:33.664Z,25.64
2022-09-07T06:12:37.988Z,25.10
2022-09-07T06:15:06.603Z,24.75
2022-09-07T06:17:35.566Z,25.26
2022-09-07T06:20:05.629Z,25.20
2022-09-07T06:22:36.116Z,25.54
2022-09-07T06:25:04.612Z,25.32
2022-09-07T06:27:32.411Z,24.51
2022-09-07T06:30:00.246Z,24.44
2022-09-07T06:32:44.401Z,24.65
2022-09-07T06:35:15.605Z,24.06
2022-09-07T06:37:44.068Z,25.15
2022-09-07T06:40:12.893Z,25.32
2022-09-07T06:42:40.876Z,25.43
2022-09-07T06:45:11.420Z,25.71
2022-09-07T06:47:39.884Z,26.15
2022-09-07T06:50:08.821Z,26.55
2022-09-07T06:55:27.533Z,26.74
2022-09-07T06:57:55.459Z,27.30
2022-09-07T07:00:25.006Z,27.49
2022-09-07T07:02:52.995Z,27.45
2022-09-07T07:05:20.992Z,26.88
2022-09-07T07:07:50.485Z,27.24
2022-09-07T07:10:23.594Z,27.43
2022-09-07T07:12:53.118Z,27.66
2022-09-07T07:15:21.116Z,27.77
2022-09-07T07:17:56.089Z,26.80
2022-09-07T07:20:26.905Z,25.46
2022-09-07T07:22:56.155Z,25.57
2022-09-07T07:25:24.185Z,26.48
2022-09-07T07:27:52.115Z,27.49
2022-09-07T07:30:21.014Z,25.65
2022-09-07T07:32:49.376Z,27.30
2022-09-07T07:35:17.346Z,25.37
2022-09-07T07:37:45.219Z,25.21
2022-09-07T07:40:15.605Z,24.99
2022-09-07T07:42:44.712Z,24.27
2022-09-07T07:48:01.136Z,24.87
2022-09-07T07:50:31.072Z,25.23
2022-09-07T07:55:49.146Z,25.94
2022-09-07T07:58:17.144Z,26.13
2022-09-07T08:00:55.476Z,25.86
2022-09-07T08:03:24.916Z,26.16
2022-09-07T08:05:53.096Z,25.78
2022-09-07T08:08:24.099Z,26.56
2022-09-07T08:10:53.492Z,27.32
2022-09-07T08:13:21.754Z,27.13
2022-09-07T08:15:50.215Z,26.34
2022-09-07T08:18:18.624Z,27.81
2022-09-07T08:20:46.400Z,28.93
2022-09-07T08:23:15.134Z,26.68
2022-09-07T08:25:50.699Z,25.79
2022-09-07T08:28:20.158Z,25.97
2022-09-07T08:30:48.004Z,26.67
2022-09-07T08:33:17.645Z,26.51
2022-09-07T08:35:56.225Z,25.37
2022-09-07T08:38:24.064Z,25.65
2022-09-07T08:40:54.977Z,25.74
2022-09-07T08:43:50.249Z,27.02
2022-09-07T08:46:29.797Z,27.09
2022-09-07T08:49:01.379Z,27.23
2022-09-07T08:51:38.153Z,26.52
2022-09-07T08:54:11.700Z,28.05
2022-09-07T08:57:20.453Z,28.84
2022-09-07T08:59:40.192Z,27.98
2022-09-07T09:02:32.602Z,27.22
2022-09-07T09:05:18.264Z,27.95
2022-09-07T09:07:57.469Z,29.62
2022-09-07T09:10:35.904Z,29.42
2022-09-07T09:13:14.250Z,27.85
2022-09-07T09:16:02.526Z,27.22
2022-09-07T09:18:58.280Z,29.23
2022-09-07T09:21:27.045Z,29.07
2022-09-07T09:24:01.260Z,30.87
2022-09-07T09:26:31.634Z,30.89
2022-09-07T09:29:13.975Z,29.25
2022-09-07T09:31:43.196Z,29.18
2022-09-07T09:34:14.104Z,29.97
2022-09-07T09:36:46.101Z,31.13
2022-09-07T09:39:33.024Z,30.99
2022-09-07T09:42:15.217Z,29.83
2022-09-07T09:44:44.231Z,30.77
2022-09-07T09:47:31.372Z,30.44
2022-09-07T09:50:02.029Z,29.05
2022-09-07T09:52:47.735Z,30.79
2022-09-07T09:55:35.004Z,31.27
2022-09-07T10:03:59.116Z,31.32
2022-09-07T10:06:30.589Z,32.91
2022-09-07T10:09:00.678Z,31.17
2022-09-07T10:12:07.150Z,31.31
2022-09-07T10:14:43.156Z,30.97
2022-09-07T10:17:23.422Z,30.48
2022-09-07T10:19:52.736Z,32.62
2022-09-07T10:22:32.153Z,31.59
2022-09-07T10:25:01.191Z,30.02
2022-09-07T10:27:34.657Z,30.25
2022-09-07T10:30:06.701Z,29.63
2022-09-07T10:32:51.999Z,32.25
2022-09-07T10:35:30.932Z,33.15
2022-09-07T10:38:11.413Z,33.35
2022-09-07T10:40:43.959Z,29.77
2022-09-07T10:43:30.772Z,30.53
2022-09-07T10:49:20.424Z,31.32
2022-09-07T10:52:01.881Z,31.57
2022-09-07T10:54:38.662Z,30.68
2022-09-07T10:57:25.446Z,31.10
2022-09-07T11:00:11.105Z,29.24
2022-09-07T11:05:55.826Z,29.58
2022-09-07T11:09:15.155Z,31.17
2022-09-07T11:14:19.315Z,32.49
2022-09-07T11:16:54.144Z,32.76
2022-09-07T11:19:41.795Z,32.46
2022-09-07T11:22:20.427Z,32.64
2022-09-07T11:27:48.182Z,30.65
2022-09-07T11:30:24.578Z,32.19
2022-09-07T11:33:06.089Z,33.74
2022-09-07T11:35:45.759Z,35.81
2022-09-07T11:38:26.481Z,33.11
2022-09-07T11:41:05.996Z,29.93
2022-09-07T11:43:42.346Z,30.38
2022-09-07T11:46:15.664Z,30.63
2022-09-07T11:48:46.791Z,30.93
2022-09-07T11:51:21.079Z,33.33
2022-09-07T11:53:57.102Z,35.46
2022-09-07T11:56:36.348Z,35.89
2022-09-07T11:59:27.936Z,36.83
2022-09-07T12:02:17.393Z,38.00
2022-09-07T12:05:03.867Z,36.60
2022-09-07T12:07:44.616Z,36.10
2022-09-07T12:10:33.926Z,32.77
2022-09-07T12:13:40.240Z,33.70
2022-09-07T12:16:16.538Z,35.73
2022-09-07T12:19:12.959Z,35.94
2022-09-07T12:21:43.280Z,35.54
2022-09-07T12:24:40.864Z,38.45
2022-09-07T12:27:26.375Z,37.76
2022-09-07T12:30:29.048Z,36.40
2022-09-07T12:33:19.498Z,35.11
2022-09-07T12:35:47.286Z,36.27
2022-09-07T12:38:57.715Z,36.63
2022-09-07T12:41:41.047Z,33.51
2022-09-07T12:44:16.866Z,31.67
2022-09-07T12:47:25.249Z,33.44
2022-09-07T12:50:14.024Z,33.54
2022-09-07T12:53:13.467Z,34.26
2022-09-07T12:59:17.501Z,35.13
2022-09-07T13:01:58.722Z,32.77
2022-09-07T13:04:43.921Z,33.30
2022-09-07T13:08:04.308Z,31.58
2022-09-07T13:10:38.143Z,31.04
2022-09-07T13:13:07.890Z,31.61
2022-09-07T13:15:41.481Z,32.46
2022-09-07T13:18:17.081Z,33.73
2022-09-07T13:20:45.083Z,33.46
2022-09-07T13:23:32.123Z,35.67
2022-09-07T13:26:01.961Z,36.24
2022-09-07T13:29:01.279Z,35.17
2022-09-07T13:31:54.653Z,35.87
2022-09-07T13:34:49.307Z,36.20
2022-09-07T13:37:21.465Z,35.63
2022-09-07T13:39:54.023Z,35.20
2022-09-07T13:42:25.967Z,33.61
2022-09-07T13:44:59.187Z,33.26
2022-09-07T13:47:36.030Z,32.59
2022-09-07T13:50:17.079Z,33.98
2022-09-07T13:53:07.871Z,35.25
2022-09-07T13:55:41.850Z,36.32
2022-09-07T13:58:22.172Z,35.17
2022-09-07T14:00:54.779Z,35.09
2022-09-07T14:03:25.037Z,35.99
2022-09-07T14:06:26.145Z,36.54
2022-09-07T14:08:56.131Z,36.59
2022-09-07T14:11:27.429Z,35.22
2022-09-07T14:14:13.635Z,35.49
2022-09-07T14:16:43.832Z,34.97
2022-09-07T14:19:14.315Z,36.37
2022-09-07T14:21:42.081Z,34.35
2022-09-07T14:24:21.574Z,35.79
2022-09-07T14:26:50.767Z,35.38
2022-09-07T14:29:30.064Z,35.77
2022-09-07T14:32:01.954Z,34.98
2022-09-07T14:34:36.906Z,35.38
2022-09-07T14:37:08.186Z,35.70
2022-09-07T14:39:39.690Z,36.33
2022-09-07T14:42:12.148Z,37.04
2022-09-07T14:44:43.064Z,35.13
2022-09-07T14:47:24.710Z,35.04
2022-09-07T14:49:53.165Z,34.54
2022-09-07T14:52:26.393Z,34.67
2022-09-07T14:54:54.621Z,34.17
2022-09-07T14:57:39.390Z,34.00
2022-09-07T15:00:21.558Z,33.42
2022-09-07T15:02:49.328Z,33.91
2022-09-07T15:05:22.482Z,33.62
2022-09-07T15:07:52.829Z,32.57
2022-09-07T15:10:31.310Z,32.83
2022-09-07T15:13:01.882Z,32.99
2022-09-07T15:15:32.406Z,33.73
2022-09-07T15:18:07.760Z,33.06
2022-09-07T15:20:39.629Z,33.80
2022-09-07T15:23:11.410Z,34.39
2022-09-07T15:25:40.645Z,33.87
2022-09-07T15:33:59.943Z,33.71
2022-09-07T15:36:28.786Z,33.49
2022-09-07T15:39:00.062Z,33.09
2022-09-07T15:41:29.172Z,33.39
2022-09-07T15:43:58.262Z,33.61
2022-09-07T15:46:29.151Z,32.87
2022-09-07T15:48:58.261Z,33.25
2022-09-07T15:54:17.536Z,32.88
2022-09-07T15:59:37.834Z,32.46
2022-09-07T16:03:04.759Z,32.52
2022-09-07T16:04:55.387Z,32.99
2022-09-07T16:08:24.935Z,32.62
2022-09-07T16:10:11.571Z,32.47
2022-09-07T16:15:28.535Z,33.14
2022-09-07T16:17:56.257Z,32.93
2022-09-07T16:20:24.117Z,32.54
2022-09-07T16:25:42.220Z,32.36
2022-09-07T16:28:11.678Z,32.46
2022-09-07T16:30:41.896Z,32.76
2022-09-07T16:33:09.631Z,32.34
2022-09-07T16:35:37.379Z,31.64
2022-09-07T16:40:52.793Z,31.41
2022-09-07T16:43:20.986Z,31.46
2022-09-07T16:46:05.281Z,32.74
2022-09-07T16:48:35.052Z,32.63
2022-09-07T16:51:03.017Z,32.16
2022-09-07T16:53:32.463Z,31.10
2022-09-07T16:56:04.895Z,30.52
2022-09-07T16:58:47.639Z,30.11
2022-09-07T17:01:19.242Z,30.42
2022-09-07T17:03:49.341Z,30.13
2022-09-07T17:06:19.052Z,30.18
2022-09-07T17:08:47.049Z,30.77
2022-09-07T17:11:17.017Z,30.53
2022-09-07T17:13:45.575Z,30.85
2022-09-07T17:16:15.357Z,30.86
2022-09-07T17:21:37.154Z,31.00
2022-09-07T17:24:07.565Z,31.21
2022-09-07T17:26:36.332Z,31.35
2022-09-07T17:29:04.234Z,30.84
2022-09-07T17:34:25.080Z,31.03
2022-09-07T17:36:55.593Z,30.29
2022-09-07T17:39:23.337Z,29.43
2022-09-07T17:41:53.262Z,29.08
2022-09-07T17:44:21.195Z,29.21
2022-09-07T17:46:48.848Z,28.78
2022-09-07T17:49:17.681Z,28.60
2022-09-07T17:51:47.268Z,28.50
2022-09-07T17:54:17.525Z,28.30
2022-09-07T17:56:45.852Z,28.57
2022-09-07T18:02:01.937Z,27.50
2022-09-07T18:04:29.875Z,27.34
2022-09-07T18:06:58.968Z,26.70
2022-09-07T18:09:26.648Z,25.84
2022-09-07T18:11:54.348Z,25.33
2022-09-07T18:14:22.227Z,25.19
2022-09-07T18:16:50.734Z,25.09
2022-09-07T18:19:19.034Z,25.21
2022-09-07T18:21:47.815Z,25.52
2022-09-07T18:24:19.534Z,25.48
2022-09-07T18:26:50.991Z,25.34
2022-09-07T18:29:33.995Z,24.92
2022-09-07T18:32:04.624Z,24.58
2022-09-07T18:34:33.731Z,24.79
2022-09-07T18:37:02.351Z,24.90
2022-09-07T18:39:32.771Z,24.94
2022-09-07T18:42:00.481Z,24.27
2022-09-07T18:47:23.252Z,24.03
2022-09-07T18:49:55.446Z,24.12
2022-09-07T18:55:15.622Z,24.37
2022-09-07T18:57:43.443Z,24.32
2022-09-07T19:00:13.113Z,24.83
2022-09-07T19:02:40.932Z,24.91
2022-09-07T19:08:03.770Z,25.16
2022-09-07T19:10:35.961Z,24.98
2022-09-07T19:13:04.333Z,25.33
2022-09-07T19:15:37.112Z,24.62
2022-09-07T19:18:06.262Z,24.19
2022-09-07T19:20:34.914Z,24.53
2022-09-07T19:23:07.192Z,24.60
2022-09-07T19:25:41.064Z,25.08
2022-09-07T19:28:09.169Z,25.05
2022-09-07T19:30:37.264Z,25.12
2022-09-07T19:33:09.785Z,23.95
2022-09-07T19:35:37.852Z,23.91
2022-09-07T19:38:05.657Z,23.94
2022-09-07T19:40:36.041Z,23.73
2022-09-07T19:43:05.721Z,23.75
2022-09-07T19:45:33.498Z,24.08
2022-09-07T19:48:01.602Z,23.92
2022-09-07T19:50:29.324Z,23.82
2022-09-07T19:52:57.005Z,23.62
2022-09-07T19:55:24.691Z,23.78
2022-09-07T19:57:52.442Z,23.56
2022-09-07T20:00:22.568Z,24.52
2022-09-07T20:02:56.990Z,25.69
2022-09-07T20:05:29.082Z,25.96
2022-09-07T20:07:56.831Z,26.89
2022-09-07T20:10:24.579Z,27.12
2022-09-07T20:12:52.305Z,26.79
2022-09-07T20:15:21.427Z,26.56
2022-09-07T20:17:49.136Z,26.55
2022-09-07T20:20:17.160Z,26.92
2022-09-07T20:22:44.996Z,27.16
2022-09-07T20:25:13.345Z,27.17
2022-09-07T20:27:41.406Z,27.04
2022-09-07T20:30:10.742Z,26.97
2022-09-07T20:32:40.807Z,27.07
2022-09-07T20:35:09.312Z,26.26
2022-09-07T20:37:37.231Z,26.16
2022-09-07T20:40:06.331Z,26.57
2022-09-07T20:42:34.292Z,26.66
2022-09-07T20:45:02.210Z,26.53
2022-09-07T20:47:30.271Z,26.89
2022-09-07T20:49:59.443Z,26.94
2022-09-07T20:52:27.636Z,27.00
2022-09-07T20:54:55.377Z,26.32
2022-09-07T20:57:23.140Z,26.28
2022-09-07T20:59:50.854Z,26.83
2022-09-07T21:02:18.607Z,26.48
2022-09-07T21:04:46.373Z,26.66
2022-09-07T21:07:15.398Z,26.14
2022-09-07T21:09:43.151Z,26.17
2022-09-07T21:12:10.899Z,23.87
2022-09-07T21:14:38.647Z,23.99
2022-09-07T21:17:06.656Z,25.38
2022-09-07T21:19:34.534Z,26.36
2022-09-07T21:22:02.255Z,26.14
2022-09-07T21:24:31.359Z,26.47
2022-09-07T21:26:59.076Z,25.25
2022-09-07T21:29:26.857Z,25.79
2022-09-07T21:31:55.507Z,26.31
2022-09-07T21:34:23.893Z,24.42
2022-09-07T21:36:52.063Z,23.99
2022-09-07T21:39:20.721Z,24.56
2022-09-07T21:41:49.902Z,24.72
2022-09-07T21:44:17.626Z,24.81
2022-09-07T21:46:45.452Z,25.15
2022-09-07T21:49:13.290Z,25.23
2022-09-07T21:51:41.012Z,25.84
2022-09-07T21:54:09.303Z,25.79
2022-09-07T21:56:37.507Z,24.11
2022-09-07T21:59:06.595Z,23.59
2022-09-07T22:01:34.433Z,23.41
2022-09-07T22:04:04.138Z,23.30
2022-09-07T22:06:33.125Z,24.81
2022-09-07T22:09:01.923Z,25.52
2022-09-07T22:11:30.925Z,25.76
2022-09-07T22:14:00.448Z,26.27
2022-09-07T22:16:29.922Z,26.48
2022-09-07T22:18:57.658Z,26.74
2022-09-07T22:21:27.480Z,26.65
2022-09-07T22:23:57.281Z,26.46
2022-09-07T22:26:27.626Z,24.94
2022-09-07T22:28:55.690Z,23.42
2022-09-07T22:31:25.610Z,22.97
2022-09-07T22:33:56.662Z,23.19
2022-09-07T22:36:25.924Z,23.48
2022-09-07T22:38:55.091Z,24.30
2022-09-07T22:41:25.422Z,24.92
2022-09-07T22:43:53.115Z,25.58
2022-09-07T22:46:23.799Z,25.81
2022-09-07T22:48:52.475Z,26.11
2022-09-07T22:51:21.889Z,24.69
2022-09-07T22:53:49.578Z,23.30
2022-09-07T22:56:20.434Z,23.38
2022-09-07T22:58:49.604Z,22.90
2022-09-07T23:01:17.879Z,23.74
2022-09-07T23:03:46.217Z,23.81
2022-09-07T23:06:23.987Z,23.68
2022-09-07T23:08:52.328Z,23.39
2022-09-07T23:11:20.684Z,23.64
2022-09-07T23:13:51.838Z,23.65
2022-09-07T23:16:19.975Z,23.27
2022-09-07T23:18:48.258Z,23.40
2022-09-07T23:21:16.673Z,23.96
2022-09-07T23:23:49.936Z,23.77
2022-09-07T23:26:17.752Z,23.77
2022-09-07T23:28:45.523Z,22.56
2022-09-07T23:31:13.453Z,22.10
2022-09-07T23:33:41.306Z,21.86
2022-09-07T23:36:09.183Z,22.00
2022-09-07T23:38:36.952Z,21.43
2022-09-07T23:41:06.393Z,21.68
2022-09-07T23:43:34.247Z,21.73
2022-09-07T23:46:02.185Z,21.99
2022-09-07T23:48:30.048Z,21.77
2022-09-07T23:50:57.796Z,21.52
2022-09-07T23:53:25.935Z,21.68
2022-09-07T23:55:54.205Z,22.15
2022-09-07T23:58:24.065Z,23.28
